sensor_id;sensor_type;location;lat;lon;timestamp;P1;durP1;ratioP1;P2;durP2;ratioP2
57323;SDS011;43160;51.008;18.248;2023-04-24T00:02:16;10.90;;;5.10;;
57323;SDS011;43160;51.008;18.248;2023-04-24T00:12:02;20.50;;;7.10;;
57323;SDS011;43160;51.008;18.248;2023-04-24T00:21:48;12.60;;;6.20;;
57323;SDS011;43160;51.008;18.248;2023-04-24T00:31:33;13.90;;;5.30;;
57323;SDS011;43160;51.008;18.248;2023-04-24T00:41:20;15.90;;;5.90;;
57323;SDS011;43160;51.008;18.248;2023-04-24T00:58:23;13.40;;;5.40;;
57323;SDS011;43160;51.008;18.248;2023-04-24T01:08:14;9.60;;;3.30;;
57323;SDS011;43160;51.008;18.248;2023-04-24T01:17:59;13.10;;;5.80;;
57323;SDS011;43160;51.008;18.248;2023-04-24T01:27:43;12.90;;;5.80;;
57323;SDS011;43160;51.008;18.248;2023-04-24T01:37:27;11.20;;;5.20;;
57323;SDS011;43160;51.008;18.248;2023-04-24T01:47:10;13.60;;;5.80;;
57323;SDS011;43160;51.008;18.248;2023-04-24T01:56:55;12.60;;;4.80;;
57323;SDS011;43160;51.008;18.248;2023-04-24T02:06:40;17.80;;;7.30;;
57323;SDS011;43160;51.008;18.248;2023-04-24T02:16:23;17.50;;;10.30;;
57323;SDS011;43160;51.008;18.248;2023-04-24T02:26:06;19.80;;;9.50;;
57323;SDS011;43160;51.008;18.248;2023-04-24T02:35:51;16.70;;;8.20;;
57323;SDS011;43160;51.008;18.248;2023-04-24T02:45:34;14.10;;;5.60;;
57323;SDS011;43160;51.008;18.248;2023-04-24T02:55:18;16.90;;;8.40;;
57323;SDS011;43160;51.008;18.248;2023-04-24T03:05:02;11.30;;;6.30;;
57323;SDS011;43160;51.008;18.248;2023-04-24T03:14:49;16.80;;;7.40;;
57323;SDS011;43160;51.008;18.248;2023-04-24T03:24:34;16.40;;;7.30;;
57323;SDS011;43160;51.008;18.248;2023-04-24T03:34:18;15.10;;;6.70;;
57323;SDS011;43160;51.008;18.248;2023-04-24T03:44:01;14.30;;;6.90;;
57323;SDS011;43160;51.008;18.248;2023-04-24T03:53:44;13.50;;;7.10;;
57323;SDS011;43160;51.008;18.248;2023-04-24T04:03:28;13.20;;;6.10;;
57323;SDS011;43160;51.008;18.248;2023-04-24T04:13:11;14.80;;;7.10;;
57323;SDS011;43160;51.008;18.248;2023-04-24T04:22:54;10.90;;;3.50;;
57323;SDS011;43160;51.008;18.248;2023-04-24T04:39:58;15.80;;;6.20;;
57323;SDS011;43160;51.008;18.248;2023-04-24T04:49:44;19.30;;;8.10;;
57323;SDS011;43160;51.008;18.248;2023-04-24T04:59:27;12.90;;;6.20;;
57323;SDS011;43160;51.008;18.248;2023-04-24T05:09:10;19.70;;;7.30;;
57323;SDS011;43160;51.008;18.248;2023-04-24T05:18:54;17.30;;;7.10;;
57323;SDS011;43160;51.008;18.248;2023-04-24T05:28:37;18.70;;;7.30;;
57323;SDS011;43160;51.008;18.248;2023-04-24T05:38:20;15.30;;;6.00;;
57323;SDS011;43160;51.008;18.248;2023-04-24T05:48:04;15.30;;;7.10;;
57323;SDS011;43160;51.008;18.248;2023-04-24T05:57:50;15.40;;;7.10;;
57323;SDS011;43160;51.008;18.248;2023-04-24T06:07:37;13.20;;;7.40;;
57323;SDS011;43160;51.008;18.248;2023-04-24T06:17:21;18.20;;;6.00;;
57323;SDS011;43160;51.008;18.248;2023-04-24T06:27:06;12.40;;;5.80;;
57323;SDS011;43160;51.008;18.248;2023-04-24T06:36:50;14.30;;;7.10;;
57323;SDS011;43160;51.008;18.248;2023-04-24T06:46:33;12.10;;;6.10;;
57323;SDS011;43160;51.008;18.248;2023-04-24T06:56:18;12.80;;;6.50;;
57323;SDS011;43160;51.008;18.248;2023-04-24T07:06:02;10.70;;;4.50;;
57323;SDS011;43160;51.008;18.248;2023-04-24T07:15:51;12.20;;;6.00;;
57323;SDS011;43160;51.008;18.248;2023-04-24T07:25:37;14.10;;;6.10;;
57323;SDS011;43160;51.008;18.248;2023-04-24T07:35:24;15.40;;;6.00;;
57323;SDS011;43160;51.008;18.248;2023-04-24T07:45:09;11.30;;;5.70;;
57323;SDS011;43160;51.008;18.248;2023-04-24T07:54:54;12.70;;;5.70;;
57323;SDS011;43160;51.008;18.248;2023-04-24T08:04:41;13.20;;;5.10;;
57323;SDS011;43160;51.008;18.248;2023-04-24T08:14:26;11.00;;;4.40;;
57323;SDS011;43160;51.008;18.248;2023-04-24T08:24:13;13.30;;;5.20;;
57323;SDS011;43160;51.008;18.248;2023-04-24T08:33:57;14.20;;;5.80;;
57323;SDS011;43160;51.008;18.248;2023-04-24T08:43:45;23.40;;;4.30;;
57323;SDS011;43160;51.008;18.248;2023-04-24T08:53:30;9.10;;;3.60;;
57323;SDS011;43160;51.008;18.248;2023-04-24T09:03:21;11.40;;;4.70;;
57323;SDS011;43160;51.008;18.248;2023-04-24T09:13:06;16.50;;;5.20;;
57323;SDS011;43160;51.008;18.248;2023-04-24T09:22:58;13.20;;;4.10;;
57323;SDS011;43160;51.008;18.248;2023-04-24T09:32:53;8.00;;;3.60;;
57323;SDS011;43160;51.008;18.248;2023-04-24T09:42:53;13.90;;;5.20;;
57323;SDS011;43160;51.008;18.248;2023-04-24T09:52:43;12.10;;;4.50;;
57323;SDS011;43160;51.008;18.248;2023-04-24T10:02:38;9.90;;;4.20;;
57323;SDS011;43160;51.008;18.248;2023-04-24T10:12:24;16.20;;;4.40;;
57323;SDS011;43160;51.008;18.248;2023-04-24T10:22:07;19.40;;;7.20;;
57323;SDS011;43160;51.008;18.248;2023-04-24T10:31:54;10.10;;;4.70;;
57323;SDS011;43160;51.008;18.248;2023-04-24T10:41:40;9.40;;;4.20;;
57323;SDS011;43160;51.008;18.248;2023-04-24T10:51:24;10.70;;;4.50;;
57323;SDS011;43160;51.008;18.248;2023-04-24T11:01:54;10.80;;;4.60;;
57323;SDS011;43160;51.008;18.248;2023-04-24T11:22:35;12.60;;;5.70;;
57323;SDS011;43160;51.008;18.248;2023-04-24T11:32:25;17.00;;;4.70;;
57323;SDS011;43160;51.008;18.248;2023-04-24T11:42:18;11.50;;;5.00;;
57323;SDS011;43160;51.008;18.248;2023-04-24T11:52:05;8.50;;;3.20;;
57323;SDS011;43160;51.008;18.248;2023-04-24T12:01:49;8.50;;;3.80;;
57323;SDS011;43160;51.008;18.248;2023-04-24T12:11:52;13.50;;;4.40;;
57323;SDS011;43160;51.008;18.248;2023-04-24T12:21:58;12.60;;;6.00;;
57323;SDS011;43160;51.008;18.248;2023-04-24T12:31:48;15.50;;;5.80;;
57323;SDS011;43160;51.008;18.248;2023-04-24T12:41:57;24.30;;;12.30;;
57323;SDS011;43160;51.008;18.248;2023-04-24T12:51:46;10.50;;;4.90;;
57323;SDS011;43160;51.008;18.248;2023-04-24T13:01:30;15.70;;;5.50;;
57323;SDS011;43160;51.008;18.248;2023-04-24T13:11:17;12.10;;;4.70;;
57323;SDS011;43160;51.008;18.248;2023-04-24T13:21:00;13.50;;;5.00;;
57323;SDS011;43160;51.008;18.248;2023-04-24T13:30:46;11.20;;;4.60;;
57323;SDS011;43160;51.008;18.248;2023-04-24T13:40:32;15.50;;;5.20;;
57323;SDS011;43160;51.008;18.248;2023-04-24T13:50:15;13.00;;;6.00;;
57323;SDS011;43160;51.008;18.248;2023-04-24T13:59:58;10.00;;;4.80;;
57323;SDS011;43160;51.008;18.248;2023-04-24T14:09:47;12.30;;;5.10;;
57323;SDS011;43160;51.008;18.248;2023-04-24T14:19:31;13.70;;;7.40;;
57323;SDS011;43160;51.008;18.248;2023-04-24T14:29:15;22.40;;;6.50;;
57323;SDS011;43160;51.008;18.248;2023-04-24T14:39:00;12.80;;;5.80;;
57323;SDS011;43160;51.008;18.248;2023-04-24T14:48:50;13.10;;;5.60;;
57323;SDS011;43160;51.008;18.248;2023-04-24T14:58:33;16.30;;;7.90;;
57323;SDS011;43160;51.008;18.248;2023-04-24T15:08:17;13.80;;;6.30;;
57323;SDS011;43160;51.008;18.248;2023-04-24T15:18:02;13.00;;;6.60;;
57323;SDS011;43160;51.008;18.248;2023-04-24T15:27:47;10.20;;;4.20;;
57323;SDS011;43160;51.008;18.248;2023-04-24T15:37:31;16.10;;;7.50;;
57323;SDS011;43160;51.008;18.248;2023-04-24T15:47:17;16.90;;;7.40;;
57323;SDS011;43160;51.008;18.248;2023-04-24T15:57:03;12.70;;;6.20;;
57323;SDS011;43160;51.008;18.248;2023-04-24T16:06:46;14.00;;;7.20;;
57323;SDS011;43160;51.008;18.248;2023-04-24T16:16:31;26.10;;;8.90;;
57323;SDS011;43160;51.008;18.248;2023-04-24T16:26:14;19.20;;;7.70;;
57323;SDS011;43160;51.008;18.248;2023-04-24T16:35:59;27.30;;;11.70;;
57323;SDS011;43160;51.008;18.248;2023-04-24T16:45:43;16.40;;;9.00;;
57323;SDS011;43160;51.008;18.248;2023-04-24T16:55:27;20.50;;;10.20;;
57323;SDS011;43160;51.008;18.248;2023-04-24T17:05:13;17.40;;;9.20;;
57323;SDS011;43160;51.008;18.248;2023-04-24T17:14:59;18.40;;;10.90;;
57323;SDS011;43160;51.008;18.248;2023-04-24T17:24:42;22.20;;;9.70;;
57323;SDS011;43160;51.008;18.248;2023-04-24T17:34:26;16.00;;;7.50;;
57323;SDS011;43160;51.008;18.248;2023-04-24T17:44:09;25.80;;;14.70;;
57323;SDS011;43160;51.008;18.248;2023-04-24T17:53:53;29.20;;;14.80;;
57323;SDS011;43160;51.008;18.248;2023-04-24T18:03:36;27.20;;;13.50;;
57323;SDS011;43160;51.008;18.248;2023-04-24T18:13:21;27.00;;;14.70;;
57323;SDS011;43160;51.008;18.248;2023-04-24T18:23:05;15.00;;;7.10;;
57323;SDS011;43160;51.008;18.248;2023-04-24T18:32:49;14.00;;;6.40;;
57323;SDS011;43160;51.008;18.248;2023-04-24T18:42:37;9.80;;;3.80;;
57323;SDS011;43160;51.008;18.248;2023-04-24T18:52:23;13.20;;;5.40;;
57323;SDS011;43160;51.008;18.248;2023-04-24T19:02:07;7.00;;;3.00;;
57323;SDS011;43160;51.008;18.248;2023-04-24T19:11:51;10.10;;;3.40;;
57323;SDS011;43160;51.008;18.248;2023-04-24T19:21:35;13.80;;;3.70;;
57323;SDS011;43160;51.008;18.248;2023-04-24T19:31:24;13.10;;;5.80;;
57323;SDS011;43160;51.008;18.248;2023-04-24T19:41:11;12.00;;;4.30;;
57323;SDS011;43160;51.008;18.248;2023-04-24T19:50:57;10.70;;;3.60;;
57323;SDS011;43160;51.008;18.248;2023-04-24T20:00:41;13.00;;;4.40;;
57323;SDS011;43160;51.008;18.248;2023-04-24T20:10:25;10.30;;;3.10;;
57323;SDS011;43160;51.008;18.248;2023-04-24T20:20:08;9.20;;;2.90;;
57323;SDS011;43160;51.008;18.248;2023-04-24T20:29:58;7.80;;;3.30;;
57323;SDS011;43160;51.008;18.248;2023-04-24T20:39:42;8.90;;;2.90;;
57323;SDS011;43160;51.008;18.248;2023-04-24T20:49:30;13.30;;;4.80;;
57323;SDS011;43160;51.008;18.248;2023-04-24T20:59:15;11.50;;;5.40;;
57323;SDS011;43160;51.008;18.248;2023-04-24T21:09:01;18.10;;;5.70;;
57323;SDS011;43160;51.008;18.248;2023-04-24T21:18:45;11.90;;;4.30;;
57323;SDS011;43160;51.008;18.248;2023-04-24T21:28:29;13.10;;;4.80;;
57323;SDS011;43160;51.008;18.248;2023-04-24T21:38:12;13.50;;;5.20;;
57323;SDS011;43160;51.008;18.248;2023-04-24T21:47:55;13.40;;;5.00;;
57323;SDS011;43160;51.008;18.248;2023-04-24T21:57:40;15.00;;;6.40;;
57323;SDS011;43160;51.008;18.248;2023-04-24T22:07:26;20.60;;;6.30;;
57323;SDS011;43160;51.008;18.248;2023-04-24T22:17:09;17.20;;;7.10;;
57323;SDS011;43160;51.008;18.248;2023-04-24T22:26:54;15.50;;;6.90;;
57323;SDS011;43160;51.008;18.248;2023-04-24T22:36:37;33.40;;;13.90;;
57323;SDS011;43160;51.008;18.248;2023-04-24T22:46:22;25.90;;;13.20;;
57323;SDS011;43160;51.008;18.248;2023-04-24T22:56:08;18.10;;;9.60;;
57323;SDS011;43160;51.008;18.248;2023-04-24T23:05:51;21.20;;;8.80;;
57323;SDS011;43160;51.008;18.248;2023-04-24T23:15:34;25.10;;;10.20;;
57323;SDS011;43160;51.008;18.248;2023-04-24T23:32:35;21.70;;;8.40;;
57323;SDS011;43160;51.008;18.248;2023-04-24T23:42:18;22.20;;;7.70;;
57323;SDS011;43160;51.008;18.248;2023-04-24T23:52:02;18.60;;;7.80;;
